sensor_id;sensor_type;location;lat;lon;timestamp;P1;durP1;ratioP1;P2;durP2;ratioP2
1509;SDS011;746;48.688;9.428;2022-09-09T00:02:05;4.23;;;2.70;;
1509;SDS011;746;48.688;9.428;2022-09-09T00:04:35;4.23;;;2.43;;
1509;SDS011;746;48.688;9.428;2022-09-09T00:07:03;3.50;;;2.50;;
1509;SDS011;746;48.688;9.428;2022-09-09T00:09:27;4.13;;;2.90;;
1509;SDS011;746;48.688;9.428;2022-09-09T00:11:50;3.17;;;2.30;;
1509;SDS011;746;48.688;9.428;2022-09-09T00:14:15;2.80;;;2.47;;
1509;SDS011;746;48.688;9.428;2022-09-09T00:16:43;2.77;;;2.43;;
1509;SDS011;746;48.688;9.428;2022-09-09T00:19:12;2.87;;;2.40;;
1509;SDS011;746;48.688;9.428;2022-09-09T00:21:43;4.00;;;2.57;;
1509;SDS011;746;48.688;9.428;2022-09-09T00:24:09;2.77;;;2.50;;
1509;SDS011;746;48.688;9.428;2022-09-09T00:26:35;5.33;;;2.43;;
1509;SDS011;746;48.688;9.428;2022-09-09T00:29:00;6.33;;;2.33;;
1509;SDS011;746;48.688;9.428;2022-09-09T00:31:26;5.90;;;2.33;;
1509;SDS011;746;48.688;9.428;2022-09-09T00:33:49;3.70;;;2.53;;
1509;SDS011;746;48.688;9.428;2022-09-09T00:36:14;4.53;;;2.30;;
1509;SDS011;746;48.688;9.428;2022-09-09T00:38:39;2.43;;;2.23;;
1509;SDS011;746;48.688;9.428;2022-09-09T00:41:05;2.47;;;2.27;;
1509;SDS011;746;48.688;9.428;2022-09-09T00:43:30;4.40;;;2.50;;
1509;SDS011;746;48.688;9.428;2022-09-09T00:48:54;5.30;;;2.80;;
1509;SDS011;746;48.688;9.428;2022-09-09T00:51:25;2.87;;;2.50;;
1509;SDS011;746;48.688;9.428;2022-09-09T00:53:57;3.47;;;2.60;;
1509;SDS011;746;48.688;9.428;2022-09-09T00:56:25;3.13;;;2.50;;
1509;SDS011;746;48.688;9.428;2022-09-09T00:58:50;5.37;;;2.53;;
1509;SDS011;746;48.688;9.428;2022-09-09T01:01:16;3.90;;;2.50;;
1509;SDS011;746;48.688;9.428;2022-09-09T01:03:38;3.67;;;2.50;;
1509;SDS011;746;48.688;9.428;2022-09-09T01:06:01;2.70;;;2.50;;
1509;SDS011;746;48.688;9.428;2022-09-09T01:08:32;5.50;;;2.60;;
1509;SDS011;746;48.688;9.428;2022-09-09T01:10:59;4.47;;;2.40;;
1509;SDS011;746;48.688;9.428;2022-09-09T01:13:23;4.17;;;2.50;;
1509;SDS011;746;48.688;9.428;2022-09-09T01:15:46;6.17;;;2.57;;
1509;SDS011;746;48.688;9.428;2022-09-09T01:18:10;4.47;;;2.60;;
1509;SDS011;746;48.688;9.428;2022-09-09T01:20:35;4.20;;;2.70;;
1509;SDS011;746;48.688;9.428;2022-09-09T01:23:16;3.93;;;2.83;;
1509;SDS011;746;48.688;9.428;2022-09-09T01:28:43;4.27;;;2.40;;
1509;SDS011;746;48.688;9.428;2022-09-09T01:31:05;2.93;;;2.60;;
1509;SDS011;746;48.688;9.428;2022-09-09T01:33:28;4.80;;;2.70;;
1509;SDS011;746;48.688;9.428;2022-09-09T01:35:50;3.40;;;2.33;;
1509;SDS011;746;48.688;9.428;2022-09-09T01:38:15;2.50;;;2.30;;
1509;SDS011;746;48.688;9.428;2022-09-09T01:40:36;3.60;;;2.67;;
1509;SDS011;746;48.688;9.428;2022-09-09T01:42:59;5.13;;;2.67;;
1509;SDS011;746;48.688;9.428;2022-09-09T01:45:21;5.07;;;2.60;;
1509;SDS011;746;48.688;9.428;2022-09-09T01:47:43;3.00;;;2.70;;
1509;SDS011;746;48.688;9.428;2022-09-09T01:50:06;2.87;;;2.57;;
1509;SDS011;746;48.688;9.428;2022-09-09T01:52:28;3.63;;;2.63;;
1509;SDS011;746;48.688;9.428;2022-09-09T01:54:50;7.67;;;2.93;;
1509;SDS011;746;48.688;9.428;2022-09-09T01:57:13;2.43;;;2.23;;
1509;SDS011;746;48.688;9.428;2022-09-09T01:59:50;7.67;;;2.70;;
1509;SDS011;746;48.688;9.428;2022-09-09T02:02:18;4.73;;;2.50;;
1509;SDS011;746;48.688;9.428;2022-09-09T02:04:41;3.93;;;2.57;;
1509;SDS011;746;48.688;9.428;2022-09-09T02:07:06;2.93;;;2.40;;
1509;SDS011;746;48.688;9.428;2022-09-09T02:09:41;3.17;;;2.60;;
1509;SDS011;746;48.688;9.428;2022-09-09T02:12:07;3.40;;;2.50;;
1509;SDS011;746;48.688;9.428;2022-09-09T02:14:33;2.83;;;2.40;;
1509;SDS011;746;48.688;9.428;2022-09-09T02:16:59;6.03;;;2.43;;
1509;SDS011;746;48.688;9.428;2022-09-09T02:19:25;4.63;;;3.33;;
1509;SDS011;746;48.688;9.428;2022-09-09T02:21:47;2.90;;;2.60;;
1509;SDS011;746;48.688;9.428;2022-09-09T02:24:09;10.43;;;2.67;;
1509;SDS011;746;48.688;9.428;2022-09-09T02:26:32;4.37;;;2.60;;
1509;SDS011;746;48.688;9.428;2022-09-09T02:28:55;2.50;;;2.30;;
1509;SDS011;746;48.688;9.428;2022-09-09T02:31:18;4.37;;;2.77;;
1509;SDS011;746;48.688;9.428;2022-09-09T02:33:43;2.93;;;2.50;;
1509;SDS011;746;48.688;9.428;2022-09-09T02:36:07;3.00;;;2.70;;
1509;SDS011;746;48.688;9.428;2022-09-09T02:38:30;3.27;;;2.87;;
1509;SDS011;746;48.688;9.428;2022-09-09T02:40:56;2.93;;;2.73;;
1509;SDS011;746;48.688;9.428;2022-09-09T02:43:17;5.90;;;2.67;;
1509;SDS011;746;48.688;9.428;2022-09-09T02:45:41;5.30;;;2.80;;
1509;SDS011;746;48.688;9.428;2022-09-09T02:48:06;6.67;;;3.13;;
1509;SDS011;746;48.688;9.428;2022-09-09T02:50:34;5.10;;;3.03;;
1509;SDS011;746;48.688;9.428;2022-09-09T02:53:00;5.67;;;2.60;;
1509;SDS011;746;48.688;9.428;2022-09-09T02:55:29;4.47;;;2.90;;
1509;SDS011;746;48.688;9.428;2022-09-09T02:57:59;3.47;;;2.90;;
1509;SDS011;746;48.688;9.428;2022-09-09T03:00:24;4.40;;;3.10;;
1509;SDS011;746;48.688;9.428;2022-09-09T03:02:46;4.20;;;3.00;;
1509;SDS011;746;48.688;9.428;2022-09-09T03:05:08;3.53;;;2.70;;
1509;SDS011;746;48.688;9.428;2022-09-09T03:07:31;4.00;;;2.87;;
1509;SDS011;746;48.688;9.428;2022-09-09T03:09:53;3.73;;;2.93;;
1509;SDS011;746;48.688;9.428;2022-09-09T03:12:15;5.43;;;2.70;;
1509;SDS011;746;48.688;9.428;2022-09-09T03:14:36;4.70;;;3.20;;
1509;SDS011;746;48.688;9.428;2022-09-09T03:16:57;6.93;;;3.50;;
1509;SDS011;746;48.688;9.428;2022-09-09T03:19:20;7.27;;;3.10;;
1509;SDS011;746;48.688;9.428;2022-09-09T03:21:42;3.27;;;2.70;;
1509;SDS011;746;48.688;9.428;2022-09-09T03:24:08;3.13;;;2.90;;
1509;SDS011;746;48.688;9.428;2022-09-09T03:26:30;7.13;;;2.87;;
1509;SDS011;746;48.688;9.428;2022-09-09T03:28:52;3.17;;;2.90;;
1509;SDS011;746;48.688;9.428;2022-09-09T03:31:14;4.80;;;3.07;;
1509;SDS011;746;48.688;9.428;2022-09-09T03:33:35;4.07;;;2.93;;
1509;SDS011;746;48.688;9.428;2022-09-09T03:35:57;3.93;;;2.83;;
1509;SDS011;746;48.688;9.428;2022-09-09T03:38:19;6.43;;;2.90;;
1509;SDS011;746;48.688;9.428;2022-09-09T03:40:49;4.13;;;2.83;;
1509;SDS011;746;48.688;9.428;2022-09-09T03:43:11;3.20;;;2.90;;
1509;SDS011;746;48.688;9.428;2022-09-09T03:45:33;4.63;;;2.90;;
1509;SDS011;746;48.688;9.428;2022-09-09T03:47:54;4.33;;;2.97;;
1509;SDS011;746;48.688;9.428;2022-09-09T03:50:17;3.67;;;3.20;;
1509;SDS011;746;48.688;9.428;2022-09-09T03:52:39;3.23;;;2.93;;
1509;SDS011;746;48.688;9.428;2022-09-09T03:55:02;4.87;;;3.33;;
1509;SDS011;746;48.688;9.428;2022-09-09T03:57:25;3.40;;;3.17;;
1509;SDS011;746;48.688;9.428;2022-09-09T03:59:47;10.07;;;3.17;;
1509;SDS011;746;48.688;9.428;2022-09-09T04:02:08;3.17;;;2.73;;
1509;SDS011;746;48.688;9.428;2022-09-09T04:04:30;4.30;;;3.07;;
1509;SDS011;746;48.688;9.428;2022-09-09T04:06:52;5.87;;;2.93;;
1509;SDS011;746;48.688;9.428;2022-09-09T04:09:13;2.90;;;2.70;;
1509;SDS011;746;48.688;9.428;2022-09-09T04:11:34;6.30;;;3.17;;
1509;SDS011;746;48.688;9.428;2022-09-09T04:13:58;4.17;;;2.93;;
1509;SDS011;746;48.688;9.428;2022-09-09T04:16:19;5.27;;;2.73;;
1509;SDS011;746;48.688;9.428;2022-09-09T04:18:42;4.93;;;3.20;;
1509;SDS011;746;48.688;9.428;2022-09-09T04:21:04;6.27;;;3.00;;
1509;SDS011;746;48.688;9.428;2022-09-09T04:23:27;3.13;;;2.90;;
1509;SDS011;746;48.688;9.428;2022-09-09T04:25:50;3.33;;;3.03;;
1509;SDS011;746;48.688;9.428;2022-09-09T04:28:12;4.00;;;2.80;;
1509;SDS011;746;48.688;9.428;2022-09-09T04:30:35;4.30;;;2.93;;
1509;SDS011;746;48.688;9.428;2022-09-09T04:32:59;5.83;;;2.80;;
1509;SDS011;746;48.688;9.428;2022-09-09T04:35:20;3.17;;;2.70;;
1509;SDS011;746;48.688;9.428;2022-09-09T04:37:42;3.40;;;2.90;;
1509;SDS011;746;48.688;9.428;2022-09-09T04:40:05;4.73;;;3.20;;
1509;SDS011;746;48.688;9.428;2022-09-09T04:42:29;5.90;;;3.20;;
1509;SDS011;746;48.688;9.428;2022-09-09T04:44:51;4.10;;;3.30;;
1509;SDS011;746;48.688;9.428;2022-09-09T04:47:14;4.37;;;3.20;;
1509;SDS011;746;48.688;9.428;2022-09-09T04:49:35;6.03;;;3.43;;
1509;SDS011;746;48.688;9.428;2022-09-09T04:51:57;4.37;;;2.73;;
1509;SDS011;746;48.688;9.428;2022-09-09T04:54:18;4.47;;;3.03;;
1509;SDS011;746;48.688;9.428;2022-09-09T04:56:40;4.30;;;3.03;;
1509;SDS011;746;48.688;9.428;2022-09-09T04:59:03;5.10;;;2.67;;
1509;SDS011;746;48.688;9.428;2022-09-09T05:01:25;3.07;;;2.77;;
1509;SDS011;746;48.688;9.428;2022-09-09T05:03:48;5.70;;;2.90;;
1509;SDS011;746;48.688;9.428;2022-09-09T05:06:10;4.33;;;2.70;;
1509;SDS011;746;48.688;9.428;2022-09-09T05:08:33;3.87;;;2.63;;
1509;SDS011;746;48.688;9.428;2022-09-09T05:10:55;2.93;;;2.73;;
1509;SDS011;746;48.688;9.428;2022-09-09T05:13:18;6.63;;;2.90;;
1509;SDS011;746;48.688;9.428;2022-09-09T05:15:40;4.20;;;2.93;;
1509;SDS011;746;48.688;9.428;2022-09-09T05:18:03;2.97;;;2.60;;
1509;SDS011;746;48.688;9.428;2022-09-09T05:20:26;3.20;;;2.90;;
1509;SDS011;746;48.688;9.428;2022-09-09T05:22:52;5.00;;;2.83;;
1509;SDS011;746;48.688;9.428;2022-09-09T05:25:13;4.53;;;2.77;;
1509;SDS011;746;48.688;9.428;2022-09-09T05:27:35;2.83;;;2.60;;
1509;SDS011;746;48.688;9.428;2022-09-09T05:29:57;3.43;;;2.57;;
1509;SDS011;746;48.688;9.428;2022-09-09T05:32:19;3.57;;;2.60;;
1509;SDS011;746;48.688;9.428;2022-09-09T05:34:40;4.33;;;2.83;;
1509;SDS011;746;48.688;9.428;2022-09-09T05:37:03;3.17;;;2.70;;
1509;SDS011;746;48.688;9.428;2022-09-09T05:39:26;3.17;;;2.70;;
1509;SDS011;746;48.688;9.428;2022-09-09T05:41:48;3.47;;;2.70;;
1509;SDS011;746;48.688;9.428;2022-09-09T05:44:10;4.23;;;2.77;;
1509;SDS011;746;48.688;9.428;2022-09-09T05:46:32;3.83;;;2.63;;
1509;SDS011;746;48.688;9.428;2022-09-09T05:48:53;4.87;;;2.60;;
1509;SDS011;746;48.688;9.428;2022-09-09T05:51:15;3.97;;;2.70;;
1509;SDS011;746;48.688;9.428;2022-09-09T05:53:39;4.20;;;2.90;;
1509;SDS011;746;48.688;9.428;2022-09-09T05:56:02;4.17;;;2.80;;
1509;SDS011;746;48.688;9.428;2022-09-09T05:58:25;4.40;;;2.80;;
1509;SDS011;746;48.688;9.428;2022-09-09T06:00:47;3.30;;;2.60;;
1509;SDS011;746;48.688;9.428;2022-09-09T06:03:09;3.20;;;2.70;;
1509;SDS011;746;48.688;9.428;2022-09-09T06:05:32;4.60;;;2.50;;
1509;SDS011;746;48.688;9.428;2022-09-09T06:07:54;7.60;;;2.63;;
1509;SDS011;746;48.688;9.428;2022-09-09T06:10:18;3.73;;;2.50;;
1509;SDS011;746;48.688;9.428;2022-09-09T06:12:40;13.33;;;3.10;;
1509;SDS011;746;48.688;9.428;2022-09-09T06:15:02;2.70;;;2.50;;
1509;SDS011;746;48.688;9.428;2022-09-09T06:17:24;3.33;;;2.50;;
1509;SDS011;746;48.688;9.428;2022-09-09T06:19:46;3.57;;;2.33;;
1509;SDS011;746;48.688;9.428;2022-09-09T06:22:07;4.70;;;2.77;;
1509;SDS011;746;48.688;9.428;2022-09-09T06:24:32;3.43;;;2.67;;
1509;SDS011;746;48.688;9.428;2022-09-09T06:26:54;5.27;;;2.47;;
1509;SDS011;746;48.688;9.428;2022-09-09T06:29:17;4.13;;;2.60;;
1509;SDS011;746;48.688;9.428;2022-09-09T06:31:38;3.43;;;2.83;;
1509;SDS011;746;48.688;9.428;2022-09-09T06:34:03;5.23;;;2.37;;
1509;SDS011;746;48.688;9.428;2022-09-09T06:36:26;5.90;;;2.83;;
1509;SDS011;746;48.688;9.428;2022-09-09T06:38:49;3.10;;;2.90;;
1509;SDS011;746;48.688;9.428;2022-09-09T06:41:11;3.13;;;2.60;;
1509;SDS011;746;48.688;9.428;2022-09-09T06:43:35;3.83;;;2.50;;
1509;SDS011;746;48.688;9.428;2022-09-09T06:45:58;6.13;;;2.40;;
1509;SDS011;746;48.688;9.428;2022-09-09T06:48:20;2.60;;;2.40;;
1509;SDS011;746;48.688;9.428;2022-09-09T06:50:41;2.53;;;2.40;;
1509;SDS011;746;48.688;9.428;2022-09-09T06:53:03;3.27;;;2.53;;
1509;SDS011;746;48.688;9.428;2022-09-09T06:55:24;3.03;;;2.47;;
1509;SDS011;746;48.688;9.428;2022-09-09T06:57:45;3.13;;;2.60;;
1509;SDS011;746;48.688;9.428;2022-09-09T07:00:11;3.67;;;2.70;;
1509;SDS011;746;48.688;9.428;2022-09-09T07:02:33;3.40;;;2.50;;
1509;SDS011;746;48.688;9.428;2022-09-09T07:04:59;3.47;;;2.30;;
1509;SDS011;746;48.688;9.428;2022-09-09T07:07:20;3.60;;;2.40;;
1509;SDS011;746;48.688;9.428;2022-09-09T07:09:43;4.73;;;2.50;;
1509;SDS011;746;48.688;9.428;2022-09-09T07:12:05;2.97;;;2.30;;
1509;SDS011;746;48.688;9.428;2022-09-09T07:14:27;5.10;;;2.50;;
1509;SDS011;746;48.688;9.428;2022-09-09T07:16:50;2.90;;;2.27;;
1509;SDS011;746;48.688;9.428;2022-09-09T07:19:17;2.10;;;1.97;;
1509;SDS011;746;48.688;9.428;2022-09-09T07:21:39;3.17;;;2.10;;
1509;SDS011;746;48.688;9.428;2022-09-09T07:24:01;3.07;;;2.20;;
1509;SDS011;746;48.688;9.428;2022-09-09T07:26:26;2.97;;;2.27;;
1509;SDS011;746;48.688;9.428;2022-09-09T07:28:48;4.03;;;2.30;;
1509;SDS011;746;48.688;9.428;2022-09-09T07:31:12;3.93;;;2.37;;
1509;SDS011;746;48.688;9.428;2022-09-09T07:33:36;3.67;;;1.90;;
1509;SDS011;746;48.688;9.428;2022-09-09T07:36:01;4.17;;;2.17;;
1509;SDS011;746;48.688;9.428;2022-09-09T07:38:24;2.63;;;2.07;;
1509;SDS011;746;48.688;9.428;2022-09-09T07:40:46;4.00;;;2.40;;
1509;SDS011;746;48.688;9.428;2022-09-09T07:43:08;2.23;;;1.90;;
1509;SDS011;746;48.688;9.428;2022-09-09T07:45:35;2.03;;;1.80;;
1509;SDS011;746;48.688;9.428;2022-09-09T07:47:57;4.10;;;2.23;;
1509;SDS011;746;48.688;9.428;2022-09-09T07:50:20;2.23;;;2.03;;
1509;SDS011;746;48.688;9.428;2022-09-09T07:52:41;2.27;;;1.87;;
1509;SDS011;746;48.688;9.428;2022-09-09T07:55:03;3.87;;;2.03;;
1509;SDS011;746;48.688;9.428;2022-09-09T07:57:25;2.50;;;1.83;;
1509;SDS011;746;48.688;9.428;2022-09-09T07:59:47;2.07;;;1.80;;
1509;SDS011;746;48.688;9.428;2022-09-09T08:02:09;2.10;;;1.90;;
1509;SDS011;746;48.688;9.428;2022-09-09T08:04:30;2.20;;;2.00;;
1509;SDS011;746;48.688;9.428;2022-09-09T08:06:54;3.27;;;2.20;;
1509;SDS011;746;48.688;9.428;2022-09-09T08:09:16;3.73;;;2.10;;
1509;SDS011;746;48.688;9.428;2022-09-09T08:11:39;2.17;;;2.03;;
1509;SDS011;746;48.688;9.428;2022-09-09T08:14:01;4.70;;;2.27;;
1509;SDS011;746;48.688;9.428;2022-09-09T08:16:24;3.23;;;2.07;;
1509;SDS011;746;48.688;9.428;2022-09-09T08:18:47;3.07;;;2.40;;
1509;SDS011;746;48.688;9.428;2022-09-09T08:21:10;2.70;;;2.10;;
1509;SDS011;746;48.688;9.428;2022-09-09T08:23:34;5.73;;;2.20;;
1509;SDS011;746;48.688;9.428;2022-09-09T08:26:02;1.90;;;1.80;;
1509;SDS011;746;48.688;9.428;2022-09-09T08:28:24;3.03;;;1.90;;
1509;SDS011;746;48.688;9.428;2022-09-09T08:30:46;3.80;;;2.10;;
1509;SDS011;746;48.688;9.428;2022-09-09T08:33:09;2.03;;;1.80;;
1509;SDS011;746;48.688;9.428;2022-09-09T08:35:31;2.13;;;1.90;;
1509;SDS011;746;48.688;9.428;2022-09-09T08:37:53;3.33;;;1.90;;
1509;SDS011;746;48.688;9.428;2022-09-09T08:40:18;5.33;;;1.70;;
1509;SDS011;746;48.688;9.428;2022-09-09T08:42:45;2.77;;;1.80;;
1509;SDS011;746;48.688;9.428;2022-09-09T08:45:14;3.60;;;1.70;;
1509;SDS011;746;48.688;9.428;2022-09-09T08:47:43;2.70;;;1.70;;
1509;SDS011;746;48.688;9.428;2022-09-09T08:50:17;3.93;;;1.93;;
1509;SDS011;746;48.688;9.428;2022-09-09T08:52:46;4.40;;;2.10;;
1509;SDS011;746;48.688;9.428;2022-09-09T08:55:15;2.10;;;1.77;;
1509;SDS011;746;48.688;9.428;2022-09-09T08:57:44;2.70;;;1.97;;
1509;SDS011;746;48.688;9.428;2022-09-09T09:00:08;4.17;;;1.67;;
1509;SDS011;746;48.688;9.428;2022-09-09T09:02:32;3.57;;;1.53;;
1509;SDS011;746;48.688;9.428;2022-09-09T09:05:06;2.20;;;1.60;;
1509;SDS011;746;48.688;9.428;2022-09-09T09:07:40;3.30;;;1.80;;
1509;SDS011;746;48.688;9.428;2022-09-09T09:10:10;3.50;;;1.73;;
1509;SDS011;746;48.688;9.428;2022-09-09T09:12:56;2.10;;;1.57;;
1509;SDS011;746;48.688;9.428;2022-09-09T09:15:19;3.30;;;1.53;;
1509;SDS011;746;48.688;9.428;2022-09-09T09:17:42;3.73;;;1.90;;
1509;SDS011;746;48.688;9.428;2022-09-09T09:20:05;4.27;;;1.77;;
1509;SDS011;746;48.688;9.428;2022-09-09T09:22:32;2.67;;;1.53;;
1509;SDS011;746;48.688;9.428;2022-09-09T09:25:02;2.27;;;1.47;;
1509;SDS011;746;48.688;9.428;2022-09-09T09:27:30;4.57;;;1.80;;
1509;SDS011;746;48.688;9.428;2022-09-09T09:29:54;4.13;;;1.70;;
1509;SDS011;746;48.688;9.428;2022-09-09T09:32:38;1.77;;;1.60;;
1509;SDS011;746;48.688;9.428;2022-09-09T09:35:00;3.13;;;1.70;;
1509;SDS011;746;48.688;9.428;2022-09-09T09:37:26;2.83;;;1.73;;
1509;SDS011;746;48.688;9.428;2022-09-09T09:39:49;3.63;;;1.90;;
1509;SDS011;746;48.688;9.428;2022-09-09T09:42:26;2.17;;;1.63;;
1509;SDS011;746;48.688;9.428;2022-09-09T09:44:47;3.10;;;1.60;;
1509;SDS011;746;48.688;9.428;2022-09-09T09:47:11;4.73;;;1.97;;
1509;SDS011;746;48.688;9.428;2022-09-09T09:49:34;3.63;;;1.70;;
1509;SDS011;746;48.688;9.428;2022-09-09T09:51:59;3.17;;;1.83;;
1509;SDS011;746;48.688;9.428;2022-09-09T09:54:22;3.27;;;1.70;;
1509;SDS011;746;48.688;9.428;2022-09-09T09:56:47;2.63;;;1.60;;
1509;SDS011;746;48.688;9.428;2022-09-09T09:59:19;5.60;;;1.83;;
1509;SDS011;746;48.688;9.428;2022-09-09T10:02:05;3.97;;;1.47;;
1509;SDS011;746;48.688;9.428;2022-09-09T10:04:33;7.60;;;1.77;;
1509;SDS011;746;48.688;9.428;2022-09-09T10:06:55;3.83;;;1.47;;
1509;SDS011;746;48.688;9.428;2022-09-09T10:09:21;2.80;;;1.50;;
1509;SDS011;746;48.688;9.428;2022-09-09T10:11:44;4.57;;;1.43;;
1509;SDS011;746;48.688;9.428;2022-09-09T10:14:15;2.03;;;1.60;;
1509;SDS011;746;48.688;9.428;2022-09-09T10:16:45;1.70;;;1.40;;
1509;SDS011;746;48.688;9.428;2022-09-09T10:19:19;2.13;;;1.30;;
1509;SDS011;746;48.688;9.428;2022-09-09T10:21:49;3.97;;;1.40;;
1509;SDS011;746;48.688;9.428;2022-09-09T10:24:31;3.37;;;1.47;;
1509;SDS011;746;48.688;9.428;2022-09-09T10:27:02;2.20;;;1.37;;
1509;SDS011;746;48.688;9.428;2022-09-09T10:29:38;2.40;;;1.60;;
1509;SDS011;746;48.688;9.428;2022-09-09T10:32:11;3.90;;;1.60;;
1509;SDS011;746;48.688;9.428;2022-09-09T10:34:52;2.07;;;1.30;;
1509;SDS011;746;48.688;9.428;2022-09-09T10:37:19;3.03;;;1.40;;
1509;SDS011;746;48.688;9.428;2022-09-09T10:39:46;3.13;;;1.40;;
1509;SDS011;746;48.688;9.428;2022-09-09T10:42:08;1.43;;;1.30;;
1509;SDS011;746;48.688;9.428;2022-09-09T10:44:34;2.23;;;1.30;;
1509;SDS011;746;48.688;9.428;2022-09-09T10:49:55;2.07;;;1.20;;
1509;SDS011;746;48.688;9.428;2022-09-09T10:52:41;3.30;;;1.27;;
1509;SDS011;746;48.688;9.428;2022-09-09T10:55:12;2.17;;;1.23;;
1509;SDS011;746;48.688;9.428;2022-09-09T10:57:36;1.30;;;1.20;;
1509;SDS011;746;48.688;9.428;2022-09-09T11:00:01;2.70;;;1.30;;
1509;SDS011;746;48.688;9.428;2022-09-09T11:02:26;1.90;;;1.23;;
1509;SDS011;746;48.688;9.428;2022-09-09T11:04:48;2.67;;;1.30;;
1509;SDS011;746;48.688;9.428;2022-09-09T11:07:37;2.53;;;1.50;;
1509;SDS011;746;48.688;9.428;2022-09-09T11:10:04;3.57;;;1.20;;
1509;SDS011;746;48.688;9.428;2022-09-09T11:12:27;1.63;;;1.10;;
1509;SDS011;746;48.688;9.428;2022-09-09T11:14:50;2.10;;;1.40;;
1509;SDS011;746;48.688;9.428;2022-09-09T11:17:39;1.70;;;1.27;;
1509;SDS011;746;48.688;9.428;2022-09-09T11:20:24;2.47;;;1.40;;
1509;SDS011;746;48.688;9.428;2022-09-09T11:22:48;2.80;;;1.50;;
1509;SDS011;746;48.688;9.428;2022-09-09T11:25:14;3.13;;;1.20;;
1509;SDS011;746;48.688;9.428;2022-09-09T11:27:38;2.00;;;1.33;;
1509;SDS011;746;48.688;9.428;2022-09-09T11:30:18;1.87;;;1.33;;
1509;SDS011;746;48.688;9.428;2022-09-09T11:33:04;3.47;;;1.43;;
1509;SDS011;746;48.688;9.428;2022-09-09T11:35:46;1.40;;;1.30;;
1509;SDS011;746;48.688;9.428;2022-09-09T11:38:18;1.63;;;1.30;;
1509;SDS011;746;48.688;9.428;2022-09-09T11:40:41;1.80;;;1.27;;
1509;SDS011;746;48.688;9.428;2022-09-09T11:43:04;3.27;;;1.23;;
1509;SDS011;746;48.688;9.428;2022-09-09T11:45:28;2.13;;;1.40;;
1509;SDS011;746;48.688;9.428;2022-09-09T11:47:51;1.40;;;1.30;;
1509;SDS011;746;48.688;9.428;2022-09-09T11:50:26;1.97;;;1.50;;
1509;SDS011;746;48.688;9.428;2022-09-09T11:53:02;2.30;;;1.60;;
1509;SDS011;746;48.688;9.428;2022-09-09T11:55:42;5.97;;;1.60;;
1509;SDS011;746;48.688;9.428;2022-09-09T11:58:04;2.73;;;1.60;;
1509;SDS011;746;48.688;9.428;2022-09-09T12:00:34;3.73;;;1.70;;
1509;SDS011;746;48.688;9.428;2022-09-09T12:02:56;4.57;;;1.80;;
1509;SDS011;746;48.688;9.428;2022-09-09T12:05:19;3.60;;;1.37;;
1509;SDS011;746;48.688;9.428;2022-09-09T12:07:45;5.63;;;1.57;;
1509;SDS011;746;48.688;9.428;2022-09-09T12:10:20;1.47;;;1.37;;
1509;SDS011;746;48.688;9.428;2022-09-09T12:12:44;1.63;;;1.50;;
1509;SDS011;746;48.688;9.428;2022-09-09T12:17:46;1.30;;;1.30;;
1509;SDS011;746;48.688;9.428;2022-09-09T12:20:11;1.87;;;1.50;;
1509;SDS011;746;48.688;9.428;2022-09-09T12:22:35;5.33;;;1.77;;
1509;SDS011;746;48.688;9.428;2022-09-09T12:25:03;1.83;;;1.13;;
1509;SDS011;746;48.688;9.428;2022-09-09T12:27:33;1.77;;;1.07;;
1509;SDS011;746;48.688;9.428;2022-09-09T12:29:57;1.10;;;1.00;;
1509;SDS011;746;48.688;9.428;2022-09-09T12:32:24;1.40;;;1.10;;
1509;SDS011;746;48.688;9.428;2022-09-09T12:34:47;1.60;;;0.83;;
1509;SDS011;746;48.688;9.428;2022-09-09T12:37:23;0.83;;;0.83;;
1509;SDS011;746;48.688;9.428;2022-09-09T12:39:49;2.23;;;0.80;;
1509;SDS011;746;48.688;9.428;2022-09-09T12:42:16;0.70;;;0.70;;
1509;SDS011;746;48.688;9.428;2022-09-09T12:44:40;0.80;;;0.80;;
1509;SDS011;746;48.688;9.428;2022-09-09T12:47:11;1.70;;;0.90;;
1509;SDS011;746;48.688;9.428;2022-09-09T12:49:34;2.23;;;0.97;;
1509;SDS011;746;48.688;9.428;2022-09-09T12:51:58;0.80;;;0.80;;
1509;SDS011;746;48.688;9.428;2022-09-09T12:54:20;0.87;;;0.80;;
1509;SDS011;746;48.688;9.428;2022-09-09T12:56:44;1.53;;;1.00;;
1509;SDS011;746;48.688;9.428;2022-09-09T12:59:17;0.93;;;0.90;;
1509;SDS011;746;48.688;9.428;2022-09-09T13:01:45;1.03;;;0.97;;
1509;SDS011;746;48.688;9.428;2022-09-09T13:04:19;1.83;;;1.00;;
1509;SDS011;746;48.688;9.428;2022-09-09T13:06:41;2.53;;;1.10;;
1509;SDS011;746;48.688;9.428;2022-09-09T13:09:02;0.83;;;0.83;;
1509;SDS011;746;48.688;9.428;2022-09-09T13:11:25;1.50;;;1.00;;
1509;SDS011;746;48.688;9.428;2022-09-09T13:13:51;2.47;;;1.17;;
1509;SDS011;746;48.688;9.428;2022-09-09T13:16:18;1.20;;;1.10;;
1509;SDS011;746;48.688;9.428;2022-09-09T13:18:43;4.77;;;1.10;;
1509;SDS011;746;48.688;9.428;2022-09-09T13:21:05;2.40;;;1.20;;
1509;SDS011;746;48.688;9.428;2022-09-09T13:23:28;1.27;;;1.00;;
1509;SDS011;746;48.688;9.428;2022-09-09T13:25:52;2.30;;;1.10;;
1509;SDS011;746;48.688;9.428;2022-09-09T13:28:18;2.10;;;1.07;;
1509;SDS011;746;48.688;9.428;2022-09-09T13:30:41;2.33;;;1.20;;
1509;SDS011;746;48.688;9.428;2022-09-09T13:33:06;3.03;;;1.57;;
1509;SDS011;746;48.688;9.428;2022-09-09T13:35:46;3.90;;;1.30;;
1509;SDS011;746;48.688;9.428;2022-09-09T13:38:09;1.03;;;1.00;;
1509;SDS011;746;48.688;9.428;2022-09-09T13:40:30;2.17;;;1.20;;
1509;SDS011;746;48.688;9.428;2022-09-09T13:42:52;2.60;;;1.20;;
1509;SDS011;746;48.688;9.428;2022-09-09T13:45:16;1.43;;;0.83;;
1509;SDS011;746;48.688;9.428;2022-09-09T13:47:41;0.80;;;0.80;;
1509;SDS011;746;48.688;9.428;2022-09-09T13:50:10;2.60;;;1.10;;
1509;SDS011;746;48.688;9.428;2022-09-09T13:52:41;1.47;;;1.20;;
1509;SDS011;746;48.688;9.428;2022-09-09T13:55:02;2.00;;;1.13;;
1509;SDS011;746;48.688;9.428;2022-09-09T13:57:39;2.37;;;1.13;;
1509;SDS011;746;48.688;9.428;2022-09-09T14:00:11;2.87;;;1.30;;
1509;SDS011;746;48.688;9.428;2022-09-09T14:02:34;2.63;;;1.03;;
1509;SDS011;746;48.688;9.428;2022-09-09T14:04:55;1.67;;;1.37;;
1509;SDS011;746;48.688;9.428;2022-09-09T14:07:17;6.17;;;2.07;;
1509;SDS011;746;48.688;9.428;2022-09-09T14:09:40;4.00;;;1.20;;
1509;SDS011;746;48.688;9.428;2022-09-09T14:12:02;2.80;;;1.40;;
1509;SDS011;746;48.688;9.428;2022-09-09T14:14:24;1.90;;;1.17;;
1509;SDS011;746;48.688;9.428;2022-09-09T14:16:46;1.23;;;1.00;;
1509;SDS011;746;48.688;9.428;2022-09-09T14:19:07;1.13;;;1.10;;
1509;SDS011;746;48.688;9.428;2022-09-09T14:21:29;2.87;;;1.30;;
1509;SDS011;746;48.688;9.428;2022-09-09T14:23:51;1.00;;;0.90;;
1509;SDS011;746;48.688;9.428;2022-09-09T14:26:14;2.00;;;1.03;;
1509;SDS011;746;48.688;9.428;2022-09-09T14:29:25;2.37;;;1.20;;
1509;SDS011;746;48.688;9.428;2022-09-09T14:32:44;1.90;;;1.20;;
1509;SDS011;746;48.688;9.428;2022-09-09T14:36:04;4.07;;;1.20;;
1509;SDS011;746;48.688;9.428;2022-09-09T14:38:28;1.50;;;1.00;;
1509;SDS011;746;48.688;9.428;2022-09-09T14:40:51;2.27;;;1.13;;
1509;SDS011;746;48.688;9.428;2022-09-09T14:44:08;3.50;;;0.93;;
1509;SDS011;746;48.688;9.428;2022-09-09T14:46:30;2.20;;;1.03;;
1509;SDS011;746;48.688;9.428;2022-09-09T14:49:50;0.90;;;0.90;;
1509;SDS011;746;48.688;9.428;2022-09-09T14:53:10;1.00;;;0.90;;
1509;SDS011;746;48.688;9.428;2022-09-09T14:55:52;1.20;;;1.00;;
1509;SDS011;746;48.688;9.428;2022-09-09T14:58:15;1.63;;;0.90;;
1509;SDS011;746;48.688;9.428;2022-09-09T15:01:01;1.33;;;1.10;;
1509;SDS011;746;48.688;9.428;2022-09-09T15:03:39;3.87;;;1.10;;
1509;SDS011;746;48.688;9.428;2022-09-09T15:06:22;1.67;;;1.00;;
1509;SDS011;746;48.688;9.428;2022-09-09T15:09:12;1.33;;;1.10;;
1509;SDS011;746;48.688;9.428;2022-09-09T15:11:34;1.10;;;1.00;;
1509;SDS011;746;48.688;9.428;2022-09-09T15:13:59;1.70;;;0.93;;
1509;SDS011;746;48.688;9.428;2022-09-09T15:16:20;1.20;;;1.00;;
1509;SDS011;746;48.688;9.428;2022-09-09T15:18:43;2.60;;;1.00;;
1509;SDS011;746;48.688;9.428;2022-09-09T15:21:05;1.23;;;0.90;;
1509;SDS011;746;48.688;9.428;2022-09-09T15:24:11;3.93;;;1.30;;
1509;SDS011;746;48.688;9.428;2022-09-09T15:26:38;0.93;;;0.93;;
1509;SDS011;746;48.688;9.428;2022-09-09T15:29:48;1.37;;;1.10;;
1509;SDS011;746;48.688;9.428;2022-09-09T15:32:35;1.23;;;1.00;;
1509;SDS011;746;48.688;9.428;2022-09-09T15:35:18;1.33;;;1.20;;
1509;SDS011;746;48.688;9.428;2022-09-09T15:38:01;2.27;;;1.30;;